sensor_id;sensor_type;location;lat;lon;timestamp;P1;durP1;ratioP1;P2;durP2;ratioP2
36443;SDS011;24692;45.642;13.806;2023-02-22T00:00:52;88.47;;;47.10;;
36443;SDS011;24692;45.642;13.806;2023-02-22T00:05:58;87.57;;;48.30;;
36443;SDS011;24692;45.642;13.806;2023-02-22T00:08:27;95.40;;;48.50;;
36443;SDS011;24692;45.642;13.806;2023-02-22T00:11:15;89.57;;;48.87;;
36443;SDS011;24692;45.642;13.806;2023-02-22T00:13:40;90.43;;;49.07;;
36443;SDS011;24692;45.642;13.806;2023-02-22T00:16:12;88.77;;;47.40;;
36443;SDS011;24692;45.642;13.806;2023-02-22T00:18:42;97.13;;;50.33;;
36443;SDS011;24692;45.642;13.806;2023-02-22T00:21:08;94.53;;;48.90;;
36443;SDS011;24692;45.642;13.806;2023-02-22T00:23:35;91.00;;;48.30;;
36443;SDS011;24692;45.642;13.806;2023-02-22T00:26:04;91.93;;;48.43;;
36443;SDS011;24692;45.642;13.806;2023-02-22T00:28:34;93.70;;;47.63;;
36443;SDS011;24692;45.642;13.806;2023-02-22T00:31:03;90.10;;;48.00;;
36443;SDS011;24692;45.642;13.806;2023-02-22T00:33:30;98.70;;;50.50;;
36443;SDS011;24692;45.642;13.806;2023-02-22T00:35:56;94.53;;;48.63;;
36443;SDS011;24692;45.642;13.806;2023-02-22T00:38:23;93.17;;;50.17;;
36443;SDS011;24692;45.642;13.806;2023-02-22T00:40:48;101.70;;;50.80;;
36443;SDS011;24692;45.642;13.806;2023-02-22T00:43:14;89.63;;;49.07;;
36443;SDS011;24692;45.642;13.806;2023-02-22T00:45:40;89.53;;;47.80;;
36443;SDS011;24692;45.642;13.806;2023-02-22T00:48:06;93.67;;;48.37;;
36443;SDS011;24692;45.642;13.806;2023-02-22T00:50:33;93.57;;;48.80;;
36443;SDS011;24692;45.642;13.806;2023-02-22T00:53:00;96.20;;;50.07;;
36443;SDS011;24692;45.642;13.806;2023-02-22T00:55:32;97.37;;;50.40;;
36443;SDS011;24692;45.642;13.806;2023-02-22T00:57:59;95.47;;;49.53;;
36443;SDS011;24692;45.642;13.806;2023-02-22T01:02:51;95.47;;;49.50;;
36443;SDS011;24692;45.642;13.806;2023-02-22T01:05:19;101.77;;;51.07;;
36443;SDS011;24692;45.642;13.806;2023-02-22T01:07:46;95.87;;;49.03;;
36443;SDS011;24692;45.642;13.806;2023-02-22T01:10:13;95.73;;;49.67;;
36443;SDS011;24692;45.642;13.806;2023-02-22T01:12:43;102.53;;;48.43;;
36443;SDS011;24692;45.642;13.806;2023-02-22T01:15:09;99.27;;;49.93;;
36443;SDS011;24692;45.642;13.806;2023-02-22T01:17:36;97.70;;;48.40;;
36443;SDS011;24692;45.642;13.806;2023-02-22T01:20:04;94.80;;;49.17;;
36443;SDS011;24692;45.642;13.806;2023-02-22T01:22:34;102.73;;;50.90;;
36443;SDS011;24692;45.642;13.806;2023-02-22T01:25:01;102.33;;;49.90;;
36443;SDS011;24692;45.642;13.806;2023-02-22T01:27:27;96.27;;;48.90;;
36443;SDS011;24692;45.642;13.806;2023-02-22T01:29:53;100.50;;;51.60;;
36443;SDS011;24692;45.642;13.806;2023-02-22T01:32:19;95.87;;;48.53;;
36443;SDS011;24692;45.642;13.806;2023-02-22T01:34:44;97.43;;;50.03;;
36443;SDS011;24692;45.642;13.806;2023-02-22T01:37:10;101.03;;;50.37;;
36443;SDS011;24692;45.642;13.806;2023-02-22T01:39:36;98.63;;;51.53;;
36443;SDS011;24692;45.642;13.806;2023-02-22T01:42:02;105.40;;;52.07;;
36443;SDS011;24692;45.642;13.806;2023-02-22T01:44:32;107.00;;;53.77;;
36443;SDS011;24692;45.642;13.806;2023-02-22T01:47:02;99.10;;;50.37;;
36443;SDS011;24692;45.642;13.806;2023-02-22T01:49:30;107.47;;;51.63;;
36443;SDS011;24692;45.642;13.806;2023-02-22T01:52:03;111.77;;;52.77;;
36443;SDS011;24692;45.642;13.806;2023-02-22T01:54:36;97.57;;;49.63;;
36443;SDS011;24692;45.642;13.806;2023-02-22T01:59:55;97.10;;;48.80;;
36443;SDS011;24692;45.642;13.806;2023-02-22T02:02:24;93.93;;;47.90;;
36443;SDS011;24692;45.642;13.806;2023-02-22T02:04:54;89.20;;;47.40;;
36443;SDS011;24692;45.642;13.806;2023-02-22T02:07:21;94.67;;;49.07;;
36443;SDS011;24692;45.642;13.806;2023-02-22T02:09:56;90.83;;;47.53;;
36443;SDS011;24692;45.642;13.806;2023-02-22T02:12:24;91.33;;;46.60;;
36443;SDS011;24692;45.642;13.806;2023-02-22T02:14:51;93.70;;;47.73;;
36443;SDS011;24692;45.642;13.806;2023-02-22T02:17:18;94.13;;;46.73;;
36443;SDS011;24692;45.642;13.806;2023-02-22T02:19:59;86.00;;;44.33;;
36443;SDS011;24692;45.642;13.806;2023-02-22T02:22:51;93.17;;;45.80;;
36443;SDS011;24692;45.642;13.806;2023-02-22T02:31:31;89.73;;;44.73;;
36443;SDS011;24692;45.642;13.806;2023-02-22T02:34:18;89.13;;;44.73;;
36443;SDS011;24692;45.642;13.806;2023-02-22T02:36:52;100.40;;;45.43;;
36443;SDS011;24692;45.642;13.806;2023-02-22T02:42:18;87.23;;;42.87;;
36443;SDS011;24692;45.642;13.806;2023-02-22T02:44:58;90.10;;;44.40;;
36443;SDS011;24692;45.642;13.806;2023-02-22T02:47:29;81.57;;;42.47;;
36443;SDS011;24692;45.642;13.806;2023-02-22T02:50:12;84.20;;;42.47;;
36443;SDS011;24692;45.642;13.806;2023-02-22T02:52:43;86.87;;;41.53;;
36443;SDS011;24692;45.642;13.806;2023-02-22T02:55:10;86.40;;;42.47;;
36443;SDS011;24692;45.642;13.806;2023-02-22T02:57:37;86.90;;;43.73;;
36443;SDS011;24692;45.642;13.806;2023-02-22T03:00:07;87.60;;;43.70;;
36443;SDS011;24692;45.642;13.806;2023-02-22T03:11:03;89.00;;;44.63;;
36443;SDS011;24692;45.642;13.806;2023-02-22T03:13:59;88.63;;;43.47;;
36443;SDS011;24692;45.642;13.806;2023-02-22T03:22:15;87.67;;;43.40;;
36443;SDS011;24692;45.642;13.806;2023-02-22T03:25:11;86.10;;;43.10;;
36443;SDS011;24692;45.642;13.806;2023-02-22T03:27:44;94.80;;;45.80;;
36443;SDS011;24692;45.642;13.806;2023-02-22T03:30:24;95.87;;;46.97;;
36443;SDS011;24692;45.642;13.806;2023-02-22T03:32:57;96.80;;;46.00;;
36443;SDS011;24692;45.642;13.806;2023-02-22T03:35:29;96.33;;;47.03;;
36443;SDS011;24692;45.642;13.806;2023-02-22T03:38:01;96.50;;;47.07;;
36443;SDS011;24692;45.642;13.806;2023-02-22T03:40:32;95.70;;;45.80;;
36443;SDS011;24692;45.642;13.806;2023-02-22T03:43:45;97.50;;;46.93;;
36443;SDS011;24692;45.642;13.806;2023-02-22T03:45:53;94.47;;;44.77;;
36443;SDS011;24692;45.642;13.806;2023-02-22T03:48:28;96.93;;;46.07;;
36443;SDS011;24692;45.642;13.806;2023-02-22T03:51:12;91.27;;;44.47;;
36443;SDS011;24692;45.642;13.806;2023-02-22T03:53:39;90.00;;;43.97;;
36443;SDS011;24692;45.642;13.806;2023-02-22T03:56:06;91.77;;;45.00;;
36443;SDS011;24692;45.642;13.806;2023-02-22T03:58:35;90.43;;;44.53;;
36443;SDS011;24692;45.642;13.806;2023-02-22T04:01:04;88.97;;;44.20;;
36443;SDS011;24692;45.642;13.806;2023-02-22T04:03:30;94.37;;;43.07;;
36443;SDS011;24692;45.642;13.806;2023-02-22T04:05:56;91.10;;;42.77;;
36443;SDS011;24692;45.642;13.806;2023-02-22T04:08:22;83.63;;;41.63;;
36443;SDS011;24692;45.642;13.806;2023-02-22T04:10:47;87.30;;;42.60;;
36443;SDS011;24692;45.642;13.806;2023-02-22T04:13:13;84.57;;;41.93;;
36443;SDS011;24692;45.642;13.806;2023-02-22T04:15:39;80.07;;;40.57;;
36443;SDS011;24692;45.642;13.806;2023-02-22T04:18:04;81.37;;;38.53;;
36443;SDS011;24692;45.642;13.806;2023-02-22T04:20:30;79.60;;;40.57;;
36443;SDS011;24692;45.642;13.806;2023-02-22T04:22:56;79.40;;;40.57;;
36443;SDS011;24692;45.642;13.806;2023-02-22T04:25:22;85.13;;;40.70;;
36443;SDS011;24692;45.642;13.806;2023-02-22T04:27:48;77.00;;;39.67;;
36443;SDS011;24692;45.642;13.806;2023-02-22T04:30:15;77.73;;;39.70;;
36443;SDS011;24692;45.642;13.806;2023-02-22T04:32:43;85.57;;;41.37;;
36443;SDS011;24692;45.642;13.806;2023-02-22T04:35:09;77.83;;;39.67;;
36443;SDS011;24692;45.642;13.806;2023-02-22T04:37:34;77.47;;;39.83;;
36443;SDS011;24692;45.642;13.806;2023-02-22T04:40:01;78.27;;;40.87;;
36443;SDS011;24692;45.642;13.806;2023-02-22T04:42:31;76.30;;;41.27;;
36443;SDS011;24692;45.642;13.806;2023-02-22T04:44:58;76.67;;;38.47;;
36443;SDS011;24692;45.642;13.806;2023-02-22T04:47:23;83.53;;;40.03;;
36443;SDS011;24692;45.642;13.806;2023-02-22T04:49:49;76.63;;;37.63;;
36443;SDS011;24692;45.642;13.806;2023-02-22T04:52:15;71.37;;;37.23;;
36443;SDS011;24692;45.642;13.806;2023-02-22T04:54:40;75.37;;;39.23;;
36443;SDS011;24692;45.642;13.806;2023-02-22T04:57:06;72.70;;;36.60;;
36443;SDS011;24692;45.642;13.806;2023-02-22T04:59:32;75.23;;;38.77;;
36443;SDS011;24692;45.642;13.806;2023-02-22T05:01:57;73.77;;;36.97;;
36443;SDS011;24692;45.642;13.806;2023-02-22T05:04:24;72.53;;;37.10;;
36443;SDS011;24692;45.642;13.806;2023-02-22T05:06:50;69.87;;;36.43;;
36443;SDS011;24692;45.642;13.806;2023-02-22T05:09:16;67.67;;;34.93;;
36443;SDS011;24692;45.642;13.806;2023-02-22T05:11:41;67.83;;;35.00;;
36443;SDS011;24692;45.642;13.806;2023-02-22T05:14:07;70.37;;;37.00;;
36443;SDS011;24692;45.642;13.806;2023-02-22T05:16:32;74.17;;;36.73;;
36443;SDS011;24692;45.642;13.806;2023-02-22T05:18:58;69.97;;;35.97;;
36443;SDS011;24692;45.642;13.806;2023-02-22T05:21:24;71.97;;;35.00;;
36443;SDS011;24692;45.642;13.806;2023-02-22T05:23:49;71.80;;;35.63;;
36443;SDS011;24692;45.642;13.806;2023-02-22T05:26:15;70.80;;;35.47;;
36443;SDS011;24692;45.642;13.806;2023-02-22T05:28:41;66.57;;;33.63;;
36443;SDS011;24692;45.642;13.806;2023-02-22T05:31:06;67.50;;;35.37;;
36443;SDS011;24692;45.642;13.806;2023-02-22T05:33:32;76.40;;;37.27;;
36443;SDS011;24692;45.642;13.806;2023-02-22T05:35:58;73.03;;;36.10;;
36443;SDS011;24692;45.642;13.806;2023-02-22T05:38:24;67.20;;;35.10;;
36443;SDS011;24692;45.642;13.806;2023-02-22T05:40:49;68.90;;;34.70;;
36443;SDS011;24692;45.642;13.806;2023-02-22T05:43:15;68.07;;;35.03;;
36443;SDS011;24692;45.642;13.806;2023-02-22T05:45:41;71.67;;;36.47;;
36443;SDS011;24692;45.642;13.806;2023-02-22T05:48:07;69.03;;;33.57;;
36443;SDS011;24692;45.642;13.806;2023-02-22T05:50:33;67.80;;;34.43;;
36443;SDS011;24692;45.642;13.806;2023-02-22T05:52:59;64.33;;;33.67;;
36443;SDS011;24692;45.642;13.806;2023-02-22T05:55:24;66.10;;;34.20;;
36443;SDS011;24692;45.642;13.806;2023-02-22T05:57:50;63.60;;;32.97;;
36443;SDS011;24692;45.642;13.806;2023-02-22T06:00:18;64.80;;;33.87;;
36443;SDS011;24692;45.642;13.806;2023-02-22T06:02:59;65.83;;;35.00;;
36443;SDS011;24692;45.642;13.806;2023-02-22T06:05:27;66.10;;;34.53;;
36443;SDS011;24692;45.642;13.806;2023-02-22T06:07:53;65.60;;;34.27;;
36443;SDS011;24692;45.642;13.806;2023-02-22T06:10:20;65.67;;;33.57;;
36443;SDS011;24692;45.642;13.806;2023-02-22T06:12:47;60.60;;;31.87;;
36443;SDS011;24692;45.642;13.806;2023-02-22T06:15:14;62.50;;;32.33;;
36443;SDS011;24692;45.642;13.806;2023-02-22T06:17:40;56.63;;;31.67;;
36443;SDS011;24692;45.642;13.806;2023-02-22T06:20:07;58.83;;;31.87;;
36443;SDS011;24692;45.642;13.806;2023-02-22T06:22:34;60.90;;;32.57;;
36443;SDS011;24692;45.642;13.806;2023-02-22T06:25:01;60.93;;;32.93;;
36443;SDS011;24692;45.642;13.806;2023-02-22T06:27:31;63.60;;;33.70;;
36443;SDS011;24692;45.642;13.806;2023-02-22T06:29:57;61.67;;;32.37;;
36443;SDS011;24692;45.642;13.806;2023-02-22T06:32:23;63.63;;;33.73;;
36443;SDS011;24692;45.642;13.806;2023-02-22T06:34:49;60.40;;;30.70;;
36443;SDS011;24692;45.642;13.806;2023-02-22T06:37:14;56.97;;;31.17;;
36443;SDS011;24692;45.642;13.806;2023-02-22T06:39:40;52.63;;;30.00;;
36443;SDS011;24692;45.642;13.806;2023-02-22T06:42:06;57.57;;;29.93;;
36443;SDS011;24692;45.642;13.806;2023-02-22T06:44:31;55.67;;;29.63;;
36443;SDS011;24692;45.642;13.806;2023-02-22T06:46:57;55.03;;;29.70;;
36443;SDS011;24692;45.642;13.806;2023-02-22T06:49:24;54.87;;;30.07;;
36443;SDS011;24692;45.642;13.806;2023-02-22T06:51:50;61.30;;;30.57;;
36443;SDS011;24692;45.642;13.806;2023-02-22T06:54:17;54.23;;;28.77;;
36443;SDS011;24692;45.642;13.806;2023-02-22T06:56:42;51.93;;;28.23;;
36443;SDS011;24692;45.642;13.806;2023-02-22T06:59:08;51.97;;;28.37;;
36443;SDS011;24692;45.642;13.806;2023-02-22T07:01:34;52.93;;;29.43;;
36443;SDS011;24692;45.642;13.806;2023-02-22T07:04:00;49.83;;;28.20;;
36443;SDS011;24692;45.642;13.806;2023-02-22T07:06:26;58.33;;;30.07;;
36443;SDS011;24692;45.642;13.806;2023-02-22T07:08:51;54.37;;;30.77;;
36443;SDS011;24692;45.642;13.806;2023-02-22T07:11:18;58.33;;;34.43;;
36443;SDS011;24692;45.642;13.806;2023-02-22T07:13:44;59.67;;;33.07;;
36443;SDS011;24692;45.642;13.806;2023-02-22T07:16:10;63.40;;;34.57;;
36443;SDS011;24692;45.642;13.806;2023-02-22T07:18:36;57.70;;;33.57;;
36443;SDS011;24692;45.642;13.806;2023-02-22T07:21:02;57.97;;;34.30;;
36443;SDS011;24692;45.642;13.806;2023-02-22T07:23:28;61.13;;;35.77;;
36443;SDS011;24692;45.642;13.806;2023-02-22T07:25:55;64.07;;;37.07;;
36443;SDS011;24692;45.642;13.806;2023-02-22T07:28:23;62.50;;;36.17;;
36443;SDS011;24692;45.642;13.806;2023-02-22T07:30:49;61.00;;;36.77;;
36443;SDS011;24692;45.642;13.806;2023-02-22T07:33:15;58.20;;;36.80;;
36443;SDS011;24692;45.642;13.806;2023-02-22T07:35:47;62.20;;;37.73;;
36443;SDS011;24692;45.642;13.806;2023-02-22T07:38:15;58.70;;;37.37;;
36443;SDS011;24692;45.642;13.806;2023-02-22T07:40:42;69.20;;;41.63;;
36443;SDS011;24692;45.642;13.806;2023-02-22T07:45:42;67.57;;;41.13;;
36443;SDS011;24692;45.642;13.806;2023-02-22T07:48:08;65.83;;;40.77;;
36443;SDS011;24692;45.642;13.806;2023-02-22T07:50:36;64.33;;;41.37;;
36443;SDS011;24692;45.642;13.806;2023-02-22T07:53:07;68.80;;;42.00;;
36443;SDS011;24692;45.642;13.806;2023-02-22T07:55:39;67.40;;;42.13;;
36443;SDS011;24692;45.642;13.806;2023-02-22T07:58:06;75.23;;;44.40;;
36443;SDS011;24692;45.642;13.806;2023-02-22T08:00:34;72.83;;;44.23;;
36443;SDS011;24692;45.642;13.806;2023-02-22T08:03:03;73.57;;;43.37;;
36443;SDS011;24692;45.642;13.806;2023-02-22T08:05:31;71.27;;;43.13;;
36443;SDS011;24692;45.642;13.806;2023-02-22T08:07:58;73.33;;;44.13;;
36443;SDS011;24692;45.642;13.806;2023-02-22T08:10:25;73.20;;;44.93;;
36443;SDS011;24692;45.642;13.806;2023-02-22T08:12:51;77.30;;;44.67;;
36443;SDS011;24692;45.642;13.806;2023-02-22T08:15:19;72.17;;;43.30;;
36443;SDS011;24692;45.642;13.806;2023-02-22T08:17:48;69.23;;;44.10;;
36443;SDS011;24692;45.642;13.806;2023-02-22T08:20:14;74.07;;;43.70;;
36443;SDS011;24692;45.642;13.806;2023-02-22T08:22:43;70.90;;;44.40;;
36443;SDS011;24692;45.642;13.806;2023-02-22T08:25:10;69.60;;;44.07;;
36443;SDS011;24692;45.642;13.806;2023-02-22T08:27:37;70.73;;;43.47;;
36443;SDS011;24692;45.642;13.806;2023-02-22T08:30:03;72.00;;;44.73;;
36443;SDS011;24692;45.642;13.806;2023-02-22T08:32:29;71.03;;;43.73;;
36443;SDS011;24692;45.642;13.806;2023-02-22T08:34:55;70.77;;;43.77;;
36443;SDS011;24692;45.642;13.806;2023-02-22T08:37:20;71.33;;;43.87;;
36443;SDS011;24692;45.642;13.806;2023-02-22T08:39:46;68.10;;;44.17;;
36443;SDS011;24692;45.642;13.806;2023-02-22T08:42:11;66.33;;;41.90;;
36443;SDS011;24692;45.642;13.806;2023-02-22T08:44:37;71.93;;;44.47;;
36443;SDS011;24692;45.642;13.806;2023-02-22T08:47:04;67.03;;;42.77;;
36443;SDS011;24692;45.642;13.806;2023-02-22T08:49:30;70.17;;;44.17;;
36443;SDS011;24692;45.642;13.806;2023-02-22T08:51:56;69.30;;;43.57;;
36443;SDS011;24692;45.642;13.806;2023-02-22T08:54:22;74.63;;;43.93;;
36443;SDS011;24692;45.642;13.806;2023-02-22T08:56:48;76.43;;;43.87;;
36443;SDS011;24692;45.642;13.806;2023-02-22T08:59:14;68.17;;;42.60;;
36443;SDS011;24692;45.642;13.806;2023-02-22T09:01:40;76.83;;;45.27;;
36443;SDS011;24692;45.642;13.806;2023-02-22T09:04:06;67.47;;;41.40;;
36443;SDS011;24692;45.642;13.806;2023-02-22T09:06:31;68.70;;;43.23;;
36443;SDS011;24692;45.642;13.806;2023-02-22T09:08:57;64.97;;;42.33;;
36443;SDS011;24692;45.642;13.806;2023-02-22T09:11:23;66.10;;;42.43;;
36443;SDS011;24692;45.642;13.806;2023-02-22T09:13:48;67.63;;;43.35;;
36443;SDS011;24692;45.642;13.806;2023-02-22T09:16:14;66.38;;;44.08;;
36443;SDS011;24692;45.642;13.806;2023-02-22T09:18:40;64.88;;;42.95;;
36443;SDS011;24692;45.642;13.806;2023-02-22T09:21:06;64.75;;;43.60;;
36443;SDS011;24692;45.642;13.806;2023-02-22T09:23:31;66.85;;;44.47;;
36443;SDS011;24692;45.642;13.806;2023-02-22T09:25:58;66.30;;;43.35;;
36443;SDS011;24692;45.642;13.806;2023-02-22T09:28:27;65.38;;;42.47;;
36443;SDS011;24692;45.642;13.806;2023-02-22T09:30:53;67.95;;;43.03;;
36443;SDS011;24692;45.642;13.806;2023-02-22T09:33:20;62.53;;;40.73;;
36443;SDS011;24692;45.642;13.806;2023-02-22T09:35:46;60.03;;;40.17;;
36443;SDS011;24692;45.642;13.806;2023-02-22T09:38:18;63.20;;;40.53;;
36443;SDS011;24692;45.642;13.806;2023-02-22T09:41:05;61.38;;;38.63;;
36443;SDS011;24692;45.642;13.806;2023-02-22T09:46:43;54.37;;;36.37;;
36443;SDS011;24692;45.642;13.806;2023-02-22T09:49:15;60.28;;;39.65;;
36443;SDS011;24692;45.642;13.806;2023-02-22T09:51:49;56.80;;;37.40;;
36443;SDS011;24692;45.642;13.806;2023-02-22T09:56:54;56.43;;;36.40;;
36443;SDS011;24692;45.642;13.806;2023-02-22T09:59:24;55.63;;;35.63;;
36443;SDS011;24692;45.642;13.806;2023-02-22T10:04:51;57.83;;;33.67;;
36443;SDS011;24692;45.642;13.806;2023-02-22T10:07:35;58.73;;;36.13;;
36443;SDS011;24692;45.642;13.806;2023-02-22T10:10:09;53.17;;;33.13;;
36443;SDS011;24692;45.642;13.806;2023-02-22T10:15:39;53.10;;;34.43;;
36443;SDS011;24692;45.642;13.806;2023-02-22T10:20:56;60.00;;;35.63;;
36443;SDS011;24692;45.642;13.806;2023-02-22T10:26:34;55.80;;;34.63;;
36443;SDS011;24692;45.642;13.806;2023-02-22T10:32:03;56.73;;;33.00;;
36443;SDS011;24692;45.642;13.806;2023-02-22T10:34:31;55.83;;;32.77;;
36443;SDS011;24692;45.642;13.806;2023-02-22T10:37:25;51.87;;;33.60;;
36443;SDS011;24692;45.642;13.806;2023-02-22T10:39:53;51.30;;;32.07;;
36443;SDS011;24692;45.642;13.806;2023-02-22T10:42:29;54.13;;;33.03;;
36443;SDS011;24692;45.642;13.806;2023-02-22T10:44:55;58.73;;;35.93;;
36443;SDS011;24692;45.642;13.806;2023-02-22T10:47:20;54.20;;;34.43;;
36443;SDS011;24692;45.642;13.806;2023-02-22T10:49:49;54.73;;;34.00;;
36443;SDS011;24692;45.642;13.806;2023-02-22T10:54:50;53.83;;;33.07;;
36443;SDS011;24692;45.642;13.806;2023-02-22T10:57:19;50.67;;;33.30;;
36443;SDS011;24692;45.642;13.806;2023-02-22T10:59:56;56.30;;;32.97;;
36443;SDS011;24692;45.642;13.806;2023-02-22T11:02:25;51.10;;;32.77;;
36443;SDS011;24692;45.642;13.806;2023-02-22T11:04:55;53.57;;;32.43;;
36443;SDS011;24692;45.642;13.806;2023-02-22T11:12:20;52.03;;;34.97;;
36443;SDS011;24692;45.642;13.806;2023-02-22T11:14:52;52.67;;;35.60;;
36443;SDS011;24692;45.642;13.806;2023-02-22T11:17:22;47.93;;;33.70;;
36443;SDS011;24692;45.642;13.806;2023-02-22T11:19:52;51.53;;;33.50;;
36443;SDS011;24692;45.642;13.806;2023-02-22T11:22:26;52.10;;;34.33;;
36443;SDS011;24692;45.642;13.806;2023-02-22T11:25:05;50.40;;;33.03;;
36443;SDS011;24692;45.642;13.806;2023-02-22T11:27:41;51.20;;;34.03;;
36443;SDS011;24692;45.642;13.806;2023-02-22T11:32:46;46.67;;;32.20;;
36443;SDS011;24692;45.642;13.806;2023-02-22T11:35:29;55.37;;;36.60;;
36443;SDS011;24692;45.642;13.806;2023-02-22T11:38:19;52.17;;;33.20;;
36443;SDS011;24692;45.642;13.806;2023-02-22T11:40:45;49.67;;;32.20;;
36443;SDS011;24692;45.642;13.806;2023-02-22T11:43:16;47.50;;;31.87;;
36443;SDS011;24692;45.642;13.806;2023-02-22T11:45:57;47.93;;;31.43;;
36443;SDS011;24692;45.642;13.806;2023-02-22T11:48:27;47.83;;;31.53;;
36443;SDS011;24692;45.642;13.806;2023-02-22T11:56:16;43.83;;;30.63;;
36443;SDS011;24692;45.642;13.806;2023-02-22T12:09:51;40.43;;;26.80;;
36443;SDS011;24692;45.642;13.806;2023-02-22T12:20:22;47.33;;;31.07;;
36443;SDS011;24692;45.642;13.806;2023-02-22T12:25:28;52.10;;;32.80;;
36443;SDS011;24692;45.642;13.806;2023-02-22T12:28:10;51.00;;;32.03;;
36443;SDS011;24692;45.642;13.806;2023-02-22T12:30:38;49.63;;;31.60;;
36443;SDS011;24692;45.642;13.806;2023-02-22T12:33:19;55.17;;;32.03;;
36443;SDS011;24692;45.642;13.806;2023-02-22T12:35:51;52.67;;;32.03;;
36443;SDS011;24692;45.642;13.806;2023-02-22T12:40:57;50.90;;;32.07;;
36443;SDS011;24692;45.642;13.806;2023-02-22T12:43:53;50.17;;;32.70;;
36443;SDS011;24692;45.642;13.806;2023-02-22T12:49:09;51.33;;;31.90;;
36443;SDS011;24692;45.642;13.806;2023-02-22T12:54:50;54.07;;;33.73;;
36443;SDS011;24692;45.642;13.806;2023-02-22T13:02:20;51.17;;;32.73;;
36443;SDS011;24692;45.642;13.806;2023-02-22T13:05:02;52.77;;;33.30;;
36443;SDS011;24692;45.642;13.806;2023-02-22T13:18:27;59.20;;;36.07;;
36443;SDS011;24692;45.642;13.806;2023-02-22T13:21:03;59.83;;;36.80;;
36443;SDS011;24692;45.642;13.806;2023-02-22T13:26:42;59.90;;;35.87;;
36443;SDS011;24692;45.642;13.806;2023-02-22T13:29:21;61.23;;;35.27;;
36443;SDS011;24692;45.642;13.806;2023-02-22T13:50:51;61.20;;;34.90;;
36443;SDS011;24692;45.642;13.806;2023-02-22T13:53:53;59.90;;;37.47;;
36443;SDS011;24692;45.642;13.806;2023-02-22T13:56:23;57.20;;;37.83;;
36443;SDS011;24692;45.642;13.806;2023-02-22T13:58:51;51.73;;;34.03;;
36443;SDS011;24692;45.642;13.806;2023-02-22T14:01:38;48.30;;;32.23;;
36443;SDS011;24692;45.642;13.806;2023-02-22T14:09:52;66.17;;;37.87;;
36443;SDS011;24692;45.642;13.806;2023-02-22T14:17:34;58.90;;;36.53;;
36443;SDS011;24692;45.642;13.806;2023-02-22T14:22:49;49.90;;;33.03;;
36443;SDS011;24692;45.642;13.806;2023-02-22T14:27:59;48.63;;;30.77;;
36443;SDS011;24692;45.642;13.806;2023-02-22T14:30:27;52.40;;;33.50;;
36443;SDS011;24692;45.642;13.806;2023-02-22T14:32:57;44.77;;;28.73;;
36443;SDS011;24692;45.642;13.806;2023-02-22T14:35:24;51.60;;;31.93;;
36443;SDS011;24692;45.642;13.806;2023-02-22T14:37:56;51.10;;;30.63;;
36443;SDS011;24692;45.642;13.806;2023-02-22T14:40:25;52.87;;;33.80;;
36443;SDS011;24692;45.642;13.806;2023-02-22T14:45:30;59.10;;;36.43;;
36443;SDS011;24692;45.642;13.806;2023-02-22T14:48:03;61.73;;;36.80;;
36443;SDS011;24692;45.642;13.806;2023-02-22T14:58:32;59.30;;;34.23;;
36443;SDS011;24692;45.642;13.806;2023-02-22T15:03:57;55.03;;;34.57;;
36443;SDS011;24692;45.642;13.806;2023-02-22T15:06:44;59.80;;;35.00;;
36443;SDS011;24692;45.642;13.806;2023-02-22T15:09:12;54.87;;;34.00;;
36443;SDS011;24692;45.642;13.806;2023-02-22T15:11:51;51.83;;;31.07;;
36443;SDS011;24692;45.642;13.806;2023-02-22T15:14:20;54.53;;;34.17;;
36443;SDS011;24692;45.642;13.806;2023-02-22T15:16:51;57.10;;;35.13;;
36443;SDS011;24692;45.642;13.806;2023-02-22T15:19:38;61.20;;;35.70;;
36443;SDS011;24692;45.642;13.806;2023-02-22T15:22:05;60.97;;;33.73;;
36443;SDS011;24692;45.642;13.806;2023-02-22T15:24:53;59.97;;;35.47;;
36443;SDS011;24692;45.642;13.806;2023-02-22T15:27:21;65.43;;;38.17;;
36443;SDS011;24692;45.642;13.806;2023-02-22T15:29:46;67.53;;;38.17;;
36443;SDS011;24692;45.642;13.806;2023-02-22T15:32:19;70.00;;;39.00;;
36443;SDS011;24692;45.642;13.806;2023-02-22T15:35:31;68.67;;;39.53;;
36443;SDS011;24692;45.642;13.806;2023-02-22T15:41:02;77.57;;;41.50;;
36443;SDS011;24692;45.642;13.806;2023-02-22T15:43:32;79.90;;;42.53;;
36443;SDS011;24692;45.642;13.806;2023-02-22T15:45:59;78.73;;;43.17;;
36443;SDS011;24692;45.642;13.806;2023-02-22T15:48:25;79.43;;;43.00;;
36443;SDS011;24692;45.642;13.806;2023-02-22T15:51:04;77.00;;;42.33;;
36443;SDS011;24692;45.642;13.806;2023-02-22T15:53:39;81.43;;;43.23;;
36443;SDS011;24692;45.642;13.806;2023-02-22T15:56:09;76.63;;;42.60;;
36443;SDS011;24692;45.642;13.806;2023-02-22T15:58:38;74.77;;;41.93;;
36443;SDS011;24692;45.642;13.806;2023-02-22T16:01:06;77.23;;;42.27;;
36443;SDS011;24692;45.642;13.806;2023-02-22T16:03:39;75.47;;;43.23;;
36443;SDS011;24692;45.642;13.806;2023-02-22T16:06:30;76.33;;;43.40;;
36443;SDS011;24692;45.642;13.806;2023-02-22T16:09:00;73.30;;;42.07;;
36443;SDS011;24692;45.642;13.806;2023-02-22T16:11:37;71.20;;;41.53;;
36443;SDS011;24692;45.642;13.806;2023-02-22T16:16:47;76.47;;;42.37;;
36443;SDS011;24692;45.642;13.806;2023-02-22T16:21:56;76.17;;;42.50;;
36443;SDS011;24692;45.642;13.806;2023-02-22T16:24:32;72.23;;;41.17;;
36443;SDS011;24692;45.642;13.806;2023-02-22T16:27:03;71.37;;;41.37;;
36443;SDS011;24692;45.642;13.806;2023-02-22T16:29:39;76.17;;;42.77;;
36443;SDS011;24692;45.642;13.806;2023-02-22T16:32:05;74.63;;;42.33;;
36443;SDS011;24692;45.642;13.806;2023-02-22T16:34:31;78.53;;;46.60;;
36443;SDS011;24692;45.642;13.806;2023-02-22T16:36:56;74.90;;;42.23;;
36443;SDS011;24692;45.642;13.806;2023-02-22T16:39:24;72.10;;;40.67;;
36443;SDS011;24692;45.642;13.806;2023-02-22T16:41:55;67.33;;;40.13;;
36443;SDS011;24692;45.642;13.806;2023-02-22T16:44:22;73.17;;;40.70;;
36443;SDS011;24692;45.642;13.806;2023-02-22T16:46:53;65.97;;;38.50;;
36443;SDS011;24692;45.642;13.806;2023-02-22T16:49:20;67.80;;;39.03;;
36443;SDS011;24692;45.642;13.806;2023-02-22T16:51:57;72.17;;;40.33;;
36443;SDS011;24692;45.642;13.806;2023-02-22T16:54:35;69.67;;;39.10;;
36443;SDS011;24692;45.642;13.806;2023-02-22T16:57:06;71.47;;;40.60;;
36443;SDS011;24692;45.642;13.806;2023-02-22T16:59:32;67.50;;;40.10;;
36443;SDS011;24692;45.642;13.806;2023-02-22T17:02:02;68.73;;;42.13;;
36443;SDS011;24692;45.642;13.806;2023-02-22T17:04:31;74.30;;;41.27;;
36443;SDS011;24692;45.642;13.806;2023-02-22T17:06:58;76.50;;;45.37;;
36443;SDS011;24692;45.642;13.806;2023-02-22T17:09:24;69.53;;;44.47;;
36443;SDS011;24692;45.642;13.806;2023-02-22T17:11:50;71.33;;;40.40;;
36443;SDS011;24692;45.642;13.806;2023-02-22T17:14:19;69.43;;;40.50;;
36443;SDS011;24692;45.642;13.806;2023-02-22T17:16:47;67.80;;;38.93;;
36443;SDS011;24692;45.642;13.806;2023-02-22T17:19:15;62.77;;;38.13;;